Monticello, Minnesota
Current Conditions -  °F | °C
As of 1:55 PM on Friday 24 Oct 2014 (Local Time) from KCFE Reporting Station
Clear Clear  
Wind Chill: 65°   Ceiling: Unl
Heat Index: 65°   Visibility: 10mi
Dew Point: 51°   Wind: 3mph
Humidity: 62%   Direction: 210°SSW
Pressure: 29.84"   Gusts: NA
Location:  45.3°N, 93.8°W
Report Text: KCFE 241855Z AUTO 21003KT 10SM CLR 18/11 A2984 RMK AO2 T01830108
Loading
Personal Weather Stations






























Interactive Weather Map
Tropical Storm Tracking
New forecast layout! Learn more

10-Day Weather Forecast

Advertisements
Track Severe Weather on mobile